Time;durP1;ratioP1;P1;durP2;ratioP2;P2;SDS_P1;SDS_P2;PMS_P1;PMS_P2;Temp;Humidity;BMP_temperature;BMP_pressure;BME280_temperature;BME280_humidity;BME280_pressure;Samples;Min_cycle;Max_cycle;Signal;HPM_P1;HPM_P2
2023/05/17 00:00:17;;;;;;;8.70;3.90;;;;;;;16.21;65.44;98838.25;4905763;29;20058;-90
2023/05/17 00:02:43;;;;;;;7.85;3.95;;;;;;;16.09;65.78;98819.88;4938836;29;20035;-90
2023/05/17 00:05:10;;;;;;;7.25;4.30;;;;;;;16.12;66.49;98810.28;4922518;29;20035;-90
2023/05/17 00:07:36;;;;;;;5.53;3.63;;;;;;;16.28;67.19;98835.06;4906483;29;20032;-90
2023/05/17 00:10:01;;;;;;;5.72;3.47;;;;;;;16.28;67.73;98840.50;4921667;29;20035;-90
2023/05/17 00:12:27;;;;;;;5.05;3.53;;;;;;;16.29;67.36;98839.34;4906847;29;20457;-90
2023/05/17 00:14:52;;;;;;;10.07;3.70;;;;;;;16.24;69.60;98823.22;4906122;29;20055;-90
2023/05/17 00:17:18;;;;;;;9.57;3.72;;;;;;;16.25;70.68;98816.66;4921552;29;20040;-90
2023/05/17 00:19:43;;;;;;;8.65;4.55;;;;;;;15.94;71.22;98793.97;4890294;29;20042;-90
2023/05/17 00:22:09;;;;;;;7.15;3.40;;;;;;;15.86;69.78;98816.47;4907449;29;20038;-90
2023/05/17 00:24:34;;;;;;;8.25;4.32;;;;;;;15.85;71.15;98814.88;4907286;29;20051;-90
2023/05/17 00:27:00;;;;;;;12.80;3.95;;;;;;;15.92;72.81;98825.28;4923055;29;20497;-90
2023/05/17 00:29:25;;;;;;;9.52;5.10;;;;;;;16.00;73.97;98826.41;4905486;29;20158;-89
2023/05/17 00:31:51;;;;;;;8.55;3.10;;;;;;;15.85;73.79;98797.78;4905261;29;20395;-89
2023/05/17 00:34:16;;;;;;;6.95;3.28;;;;;;;15.73;73.11;98817.44;4906696;29;20478;-90
2023/05/17 00:36:42;;;;;;;9.73;3.30;;;;;;;15.46;72.27;98783.97;4921142;29;20032;-89
2023/05/17 00:39:07;;;;;;;8.70;3.92;;;;;;;15.27;75.60;98729.16;4905013;29;20421;-90
2023/05/17 00:41:32;;;;;;;12.82;4.30;;;;;;;15.18;76.32;98790.72;4906408;29;20087;-91
2023/05/17 00:43:58;;;;;;;7.93;3.08;;;;;;;15.14;74.94;98834.72;4905670;29;20067;-90
2023/05/17 00:46:23;;;;;;;18.75;4.20;;;;;;;15.08;72.79;98810.78;4906347;29;20063;-90
2023/05/17 00:48:49;;;;;;;9.02;2.80;;;;;;;14.78;70.38;98755.47;4922590;29;20553;-91
2023/05/17 00:51:15;;;;;;;8.75;3.45;;;;;;;14.99;71.15;98767.38;4905963;29;20051;-90
2023/05/17 00:53:41;;;;;;;9.10;3.25;;;;;;;14.79;71.55;98770.63;4906196;29;20069;-90
2023/05/17 00:56:07;;;;;;;7.22;2.45;;;;;;;14.78;72.79;98766.31;4921591;29;20496;-90
2023/05/17 00:58:32;;;;;;;5.28;2.03;;;;;;;14.73;73.63;98770.75;4921707;29;20063;-90
2023/05/17 01:00:58;;;;;;;9.10;2.50;;;;;;;14.43;76.21;98752.53;4906040;29;20020;-90
2023/05/17 01:03:24;;;;;;;9.18;2.83;;;;;;;14.66;76.90;98788.56;4905536;29;20024;-90
2023/05/17 01:05:50;;;;;;;10.82;3.00;;;;;;;14.53;77.25;98780.16;4905105;29;20027;-91
2023/05/17 01:08:15;;;;;;;6.20;2.65;;;;;;;14.45;74.93;98756.53;4904684;29;20036;-90
2023/05/17 01:10:57;;;;;;;7.47;2.72;;;;;;;14.58;75.76;98787.38;4905197;29;20421;-90
2023/05/17 01:13:32;;;;;;;;;;;;;;;14.50;77.28;98797.03;4921290;29;20036;-90
2023/05/17 01:16:12;;;;;;;7.90;3.08;;;;;;;14.42;76.99;98796.97;4921290;29;20000;-91
2023/05/17 01:18:40;;;;;;;6.55;3.22;;;;;;;14.29;79.32;98768.84;4905652;29;20405;-90
2023/05/17 01:21:15;;;;;;;6.50;2.85;;;;;;;14.40;76.87;98808.13;4906144;29;20031;-90
2023/05/17 01:23:55;;;;;;;6.68;3.13;;;;;;;14.60;77.85;98827.72;4921404;29;20115;-91
2023/05/17 01:26:37;;;;;;;9.77;2.80;;;;;;;14.57;78.21;98806.66;4905351;29;20034;-90
2023/05/17 01:29:03;;;;;;;5.20;2.92;;;;;;;14.51;76.29;98768.03;4906065;29;20402;-90
2023/05/17 01:31:30;;;;;;;7.97;2.80;;;;;;;14.65;77.41;98779.63;4920771;29;20028;-92
2023/05/17 01:33:57;;;;;;;8.40;2.90;;;;;;;14.45;78.64;98763.84;4937936;29;20383;-91
2023/05/17 01:36:23;;;;;;;5.85;3.30;;;;;;;14.54;78.87;98789.09;4904964;29;20028;-90
2023/05/17 01:38:48;;;;;;;6.15;2.88;;;;;;;14.73;78.52;98792.44;4905028;29;20032;-91
2023/05/17 01:41:23;;;;;;;6.78;2.92;;;;;;;14.86;77.84;98785.31;4904688;29;20407;-91
2023/05/17 01:44:10;;;;;;;5.20;2.42;;;;;;;14.90;77.65;98782.78;4920699;29;20039;-91
2023/05/17 01:46:40;;;;;;;5.97;2.53;;;;;;;14.88;77.09;98760.59;4920221;29;20138;-89
2023/05/17 01:49:20;;;;;;;6.80;3.00;;;;;;;14.75;78.92;98735.19;4920775;29;20467;-89
2023/05/17 01:52:08;;;;;;;7.15;2.92;;;;;;;14.68;79.82;98726.72;4921426;29;20032;-90
2023/05/17 01:54:42;;;;;;;8.48;2.83;;;;;;;14.77;78.38;98716.72;4919763;29;20031;-90
2023/05/17 01:57:08;;;;;;;8.45;2.78;;;;;;;14.76;78.27;98712.41;4903838;29;20032;-91
2023/05/17 01:59:33;;;;;;;8.43;3.28;;;;;;;14.50;80.81;98709.53;4920525;29;20035;-90
2023/05/17 02:02:06;;;;;;;8.65;3.00;;;;;;;14.39;80.37;98695.47;4904643;29;20063;-90
2023/05/17 02:04:31;;;;;;;6.32;3.22;;;;;;;14.68;79.47;98730.22;4904462;29;20028;-90
2023/05/17 02:06:57;;;;;;;8.50;3.80;;;;;;;14.56;81.02;98740.84;4904336;29;20028;-91
2023/05/17 02:09:22;;;;;;;10.68;3.58;;;;;;;14.38;82.15;98723.69;4920689;29;20031;-91
2023/05/17 02:11:48;;;;;;;5.53;3.53;;;;;;;14.38;82.02;98744.53;4919879;29;20032;-90
2023/05/17 02:14:13;;;;;;;9.02;3.05;;;;;;;14.38;80.35;98736.41;4904137;29;20537;-90
2023/05/17 02:16:39;;;;;;;7.45;3.72;;;;;;;14.31;81.06;98734.91;4919211;29;20027;-90
2023/05/17 02:19:06;;;;;;;6.60;3.35;;;;;;;14.25;81.38;98725.31;4919400;29;20027;-90
2023/05/17 02:21:31;;;;;;;7.00;3.75;;;;;;;14.29;81.11;98728.22;4920274;29;20459;-90
2023/05/17 02:23:57;;;;;;;11.02;4.38;;;;;;;14.11;81.63;98717.28;4904679;29;20030;-90
2023/05/17 02:26:22;;;;;;;10.50;4.25;;;;;;;14.18;81.55;98724.19;4904264;29;20035;-90
2023/05/17 02:28:48;;;;;;;8.48;3.33;;;;;;;14.09;81.45;98729.50;4903956;29;20486;-90
2023/05/17 02:31:13;;;;;;;8.50;3.10;;;;;;;14.13;81.31;98736.72;4919918;29;20058;-90
2023/05/17 02:33:39;;;;;;;6.93;2.78;;;;;;;14.15;81.34;98730.97;4903721;29;20062;-90
2023/05/17 02:36:05;;;;;;;6.13;2.88;;;;;;;14.12;80.99;98718.06;4904196;29;20031;-90
2023/05/17 02:38:30;;;;;;;10.30;3.00;;;;;;;14.24;80.59;98725.66;4912449;29;20103;-90
2023/05/17 02:40:56;;;;;;;9.20;2.90;;;;;;;14.20;80.94;98721.97;4904797;29;20075;-90
2023/05/17 02:43:21;;;;;;;6.45;2.95;;;;;;;14.14;82.06;98729.41;4919528;29;20482;-90
2023/05/17 02:45:47;;;;;;;12.18;3.25;;;;;;;14.13;82.42;98723.19;4897779;29;20055;-90
2023/05/17 02:48:12;;;;;;;9.88;3.13;;;;;;;14.11;82.19;98719.16;4904423;29;20035;-91
2023/05/17 02:50:38;;;;;;;7.38;2.88;;;;;;;13.99;82.83;98717.03;4903788;29;20031;-91
2023/05/17 02:53:03;;;;;;;8.73;3.25;;;;;;;14.03;82.56;98742.38;4919374;29;20036;-90
2023/05/17 02:55:29;;;;;;;7.15;2.78;;;;;;;14.10;82.53;98736.53;4903446;29;20042;-90
2023/05/17 02:57:54;;;;;;;7.80;2.88;;;;;;;14.13;82.43;98735.91;4919779;29;20027;-91
2023/05/17 03:00:20;;;;;;;3.83;2.65;;;;;;;14.13;82.19;98731.31;4919676;29;20032;-90
2023/05/17 03:02:45;;;;;;;7.22;3.00;;;;;;;14.06;82.27;98730.13;4920240;29;20482;-90
2023/05/17 03:05:11;;;;;;;8.73;3.17;;;;;;;14.02;82.41;98732.66;4904217;29;20036;-90
2023/05/17 03:07:37;;;;;;;4.88;2.38;;;;;;;14.27;81.41;98765.63;4905901;29;20042;-90
2023/05/17 03:10:02;;;;;;;7.18;2.70;;;;;;;14.31;79.92;98737.63;4920042;29;20043;-90
2023/05/17 03:12:28;;;;;;;5.72;2.42;;;;;;;14.54;79.02;98762.00;4920832;29;20159;-90
2023/05/17 03:14:53;;;;;;;6.85;2.22;;;;;;;14.37;78.73;98735.59;4905479;29;20067;-91
2023/05/17 03:17:19;;;;;;;4.78;2.65;;;;;;;14.50;78.98;98739.34;4904437;29;20028;-90
2023/05/17 03:19:44;;;;;;;8.68;2.70;;;;;;;14.70;79.18;98768.66;4904907;29;20504;-91
2023/05/17 03:22:11;;;;;;;5.47;2.65;;;;;;;14.61;78.82;98748.03;4904489;29;20090;-90
2023/05/17 03:24:36;;;;;;;8.38;2.70;;;;;;;14.74;78.66;98775.06;4904754;29;20127;-90
2023/05/17 03:27:02;;;;;;;8.18;2.78;;;;;;;14.65;79.45;98755.25;4906853;29;20426;-91
2023/05/17 03:29:29;;;;;;;6.80;3.35;;;;;;;14.44;81.60;98770.38;4908722;29;20044;-92
2023/05/17 03:31:55;;;;;;;5.80;3.10;;;;;;;14.37;82.10;98772.72;4907486;29;20051;-92
2023/05/17 03:34:20;;;;;;;11.18;3.10;;;;;;;14.50;82.04;98798.94;4908626;29;20086;-91
2023/05/17 03:36:46;;;;;;;7.82;3.20;;;;;;;14.33;82.04;98773.31;4914848;29;20051;-92
2023/05/17 03:39:12;;;;;;;7.30;3.58;;;;;;;14.51;80.87;98782.38;4908991;29;20019;-92
2023/05/17 03:41:41;;;;;;;10.52;3.38;;;;;;;14.58;80.43;98778.47;4923522;29;20024;-92
2023/05/17 03:44:07;;;;;;;8.95;2.92;;;;;;;14.58;80.15;98770.34;4908129;29;20043;-92
2023/05/17 03:46:32;;;;;;;5.47;2.90;;;;;;;14.62;81.46;98788.38;4911054;29;20032;-93
2023/05/17 03:48:58;;;;;;;7.50;3.15;;;;;;;14.50;81.87;98775.34;4908298;29;20043;-92
2023/05/17 03:51:24;;;;;;;6.50;3.47;;;;;;;14.63;81.84;98778.31;4925259;29;20058;-92
2023/05/17 03:54:00;;;;;;;38.38;26.15;;;;;;;14.57;82.36;98799.34;4909146;29;20083;-91
2023/05/17 03:56:25;;;;;;;21.67;9.07;;;;;;;14.48;82.26;98780.28;4924668;29;20039;-92
2023/05/17 03:58:51;;;;;;;8.40;4.90;;;;;;;14.37;82.65;98772.72;4923436;29;20099;-92
2023/05/17 04:01:19;;;;;;;10.05;3.97;;;;;;;14.51;80.82;98774.25;4909156;29;20023;-94
2023/05/17 04:03:45;;;;;;;11.15;3.88;;;;;;;14.62;80.40;98753.16;4908957;29;20039;-92
2023/05/17 04:06:13;;;;;;;14.02;4.22;;;;;;;14.84;79.50;98776.72;4893464;29;20031;-92
2023/05/17 04:08:39;;;;;;;8.20;3.70;;;;;;;14.77;78.96;98765.50;4893098;29;20024;-92
2023/05/17 04:11:12;;;;;;;7.70;3.60;;;;;;;15.00;76.87;98779.00;4892603;29;20027;-92
2023/05/17 04:13:41;;;;;;;5.60;2.78;;;;;;;15.06;75.17;98765.00;4894889;29;20031;-92
2023/05/17 04:16:09;;;;;;;7.55;3.22;;;;;;;15.20;76.82;98783.09;4908431;29;20122;-93
2023/05/17 04:18:35;;;;;;;7.88;4.30;;;;;;;15.16;75.43;98778.28;4923651;29;20031;-91
2023/05/17 04:21:02;;;;;;;9.50;2.72;;;;;;;15.26;73.50;98785.34;4907542;29;20047;-92
2023/05/17 04:23:29;;;;;;;4.03;2.72;;;;;;;15.32;73.87;98767.81;4908804;29;20027;-91
2023/05/17 04:25:56;;;;;;;5.25;3.38;;;;;;;15.38;76.51;98801.03;4924079;29;20042;-91
2023/05/17 04:28:24;;;;;;;6.30;3.63;;;;;;;15.20;76.98;98770.31;4924665;29;20027;-92
2023/05/17 04:30:51;;;;;;;10.82;4.88;;;;;;;15.31;77.46;98792.53;4914568;29;20119;-91
2023/05/17 04:33:17;;;;;;;13.18;4.00;;;;;;;15.20;79.41;98791.22;4908681;29;20046;-92
2023/05/17 04:35:44;;;;;;;11.02;3.30;;;;;;;15.24;78.81;98797.63;4923183;29;20032;-91
2023/05/17 04:38:11;;;;;;;9.32;4.22;;;;;;;15.09;79.69;98769.81;4940391;29;20403;-90
2023/05/17 04:40:36;;;;;;;8.93;3.15;;;;;;;15.02;79.13;98774.06;4890426;29;20134;-90
2023/05/17 04:43:02;;;;;;;10.25;3.83;;;;;;;15.07;79.39;98766.59;4921378;29;20027;-92
2023/05/17 04:45:28;;;;;;;7.95;5.80;;;;;;;15.32;78.48;98783.28;4935172;29;20401;-92
2023/05/17 04:47:53;;;;;;;7.00;3.58;;;;;;;15.35;78.65;98775.28;4902828;29;20482;-93
2023/05/17 04:50:19;;;;;;;6.53;3.92;;;;;;;15.44;78.10;98771.81;4924065;29;20490;-92
2023/05/17 04:52:45;;;;;;;6.85;3.53;;;;;;;15.41;77.88;98781.38;4905866;29;20032;-91
2023/05/17 04:55:14;;;;;;;5.00;3.90;;;;;;;15.38;79.33;98779.31;4918049;29;20038;-92
2023/05/17 04:57:39;;;;;;;7.93;3.55;;;;;;;15.54;79.53;98802.19;4931308;29;20071;-92
2023/05/17 05:00:21;;;;;;;5.97;3.50;;;;;;;15.41;78.59;98805.81;4927218;29;20036;-95
2023/05/17 05:02:50;;;;;;;7.30;3.28;;;;;;;15.49;77.05;98796.88;4947278;29;20067;-91
2023/05/17 05:05:27;;;;;;;8.30;4.13;;;;;;;15.61;77.38;98800.94;4920916;29;22103;-91
2023/05/17 05:07:52;;;;;;;6.18;3.55;;;;;;;15.82;77.23;98814.72;4907352;29;20501;-91
2023/05/17 05:10:20;;;;;;;11.00;4.53;;;;;;;15.76;77.96;98814.88;4902081;29;20032;-93
2023/05/17 05:12:46;;;;;;;6.30;3.92;;;;;;;15.90;77.85;98812.03;4892486;29;20039;-91
2023/05/17 05:15:11;;;;;;;9.00;4.45;;;;;;;16.04;78.00;98824.63;4945408;29;20052;-91
2023/05/17 05:17:39;;;;;;;19.23;8.88;;;;;;;16.16;77.25;98825.63;4890621;29;20079;-92
2023/05/17 05:20:11;;;;;;;69.47;37.72;;;;;;;16.31;78.40;98826.25;4916639;29;20497;-92
2023/05/17 05:22:38;;;;;;;16.92;9.70;;;;;;;16.46;77.92;98828.50;4925224;29;20058;-91
2023/05/17 05:25:04;;;;;;;14.52;5.00;;;;;;;16.46;77.36;98822.28;4907203;29;20036;-91
2023/05/17 05:30:58;;;;;;;6.15;3.72;;;;;;;16.69;75.07;98823.66;4919333;29;20043;-91
2023/05/17 05:33:30;;;;;;;11.93;4.22;;;;;;;16.69;75.23;98820.16;4888572;29;20028;-94
2023/05/17 05:35:56;;;;;;;7.90;3.58;;;;;;;16.83;75.07;98848.00;4928890;29;20042;-94
2023/05/17 05:38:23;;;;;;;10.93;4.53;;;;;;;16.78;74.48;98823.66;4910308;29;20031;-93
2023/05/17 05:40:52;;;;;;;13.13;4.40;;;;;;;16.79;74.80;98806.22;4925786;29;20052;-93
2023/05/17 05:43:18;;;;;;;16.65;4.78;;;;;;;17.01;74.46;98837.84;4941936;29;20095;-92
2023/05/17 05:45:50;;;;;;;13.85;5.55;;;;;;;17.09;73.91;98826.16;4896558;29;20075;-92
2023/05/17 05:48:17;;;;;;;10.98;4.93;;;;;;;17.23;74.22;98836.84;4912649;29;20114;-94
2023/05/17 05:50:45;;;;;;;10.05;4.03;;;;;;;17.24;74.03;98821.31;4928334;29;20037;-94
2023/05/17 05:53:10;;;;;;;12.05;4.88;;;;;;;17.27;74.47;98828.84;4909130;29;20039;-93
2023/05/17 05:55:41;;;;;;;7.65;4.25;;;;;;;17.15;74.63;98821.34;4921116;29;20032;-93
2023/05/17 05:58:09;;;;;;;12.40;4.13;;;;;;;17.36;74.04;98815.97;4889637;29;20039;-93
2023/05/17 06:00:37;;;;;;;11.10;5.07;;;;;;;17.28;73.14;98805.94;4895481;29;20406;-92
2023/05/17 06:03:03;;;;;;;7.88;4.78;;;;;;;17.43;73.20;98821.72;4899924;29;20034;-92
2023/05/17 06:05:29;;;;;;;8.93;4.13;;;;;;;17.58;72.42;98833.97;4931801;29;20031;-91
2023/05/17 06:08:23;;;;;;;13.48;4.72;;;;;;;17.66;72.23;98832.31;4932905;29;20039;-94
2023/05/17 06:11:03;;;;;;;19.83;4.38;;;;;;;17.71;71.79;98813.09;4918168;29;20384;-95
2023/05/17 06:13:29;;;;;;;13.52;4.28;;;;;;;17.73;71.63;98802.66;4909002;29;20042;-91
2023/05/17 06:15:55;;;;;;;11.82;4.95;;;;;;;17.83;71.75;98818.66;4906478;29;20027;-93
2023/05/17 06:18:20;;;;;;;12.18;5.72;;;;;;;17.88;70.45;98801.31;4945120;29;20023;-95
2023/05/17 06:20:46;;;;;;;11.32;4.40;;;;;;;18.05;69.18;98819.44;4926729;29;20023;-93
2023/05/17 06:23:25;;;;;;;;;;;;;;;;;;;;;
2023/05/17 06:25:56;;;;;;;7.15;3.25;;;;;;;17.93;67.74;98801.13;4937161;29;20058;-96
2023/05/17 06:28:25;;;;;;;8.32;3.25;;;;;;;18.04;65.36;98815.16;4928669;29;20027;-96
2023/05/17 06:30:50;;;;;;;14.10;3.42;;;;;;;18.12;68.05;98811.56;4935160;29;20099;-95
2023/05/17 06:33:33;;;;;;;;;;;;;;;;;;;;;
2023/05/17 06:36:09;;;;;;;9.00;3.40;;;;;;;18.56;65.65;98833.78;4952060;29;20046;-94
2023/05/17 06:38:41;;;;;;;13.93;5.80;;;;;;;18.71;65.70;98848.72;4918748;29;20031;-96
2023/05/17 06:45:12;;;;;;;13.88;4.05;;;;;;;18.76;64.87;98813.88;4967425;29;20058;-96
2023/05/17 06:52:56;;;;;;;13.82;4.68;;;;;;;19.21;64.23;98825.91;4939271;29;20419;-93
2023/05/17 06:55:21;;;;;;;11.90;6.07;;;;;;;19.46;62.81;98834.13;4898411;29;20063;-93
2023/05/17 06:57:47;;;;;;;20.75;5.28;;;;;;;19.47;62.98;98817.41;4905788;29;20024;-93
2023/05/17 07:00:13;;;;;;;4.55;2.50;;;;;;;19.49;60.84;98812.41;4888729;29;20023;-91
2023/05/17 07:02:38;;;;;;;9.15;2.58;;;;;;;19.68;60.80;98797.38;4889169;29;20035;-92
2023/05/17 07:05:05;;;;;;;7.22;2.65;;;;;;;19.70;61.22;98809.56;4911611;29;20032;-93
2023/05/17 07:07:31;;;;;;;12.38;6.10;;;;;;;19.78;60.39;98810.59;4894297;29;20087;-94
2023/05/17 07:10:20;;;;;;;9.18;4.10;;;;;;;19.81;62.18;98796.25;4894208;29;20031;-95
2023/05/17 07:15:37;;;;;;;8.90;2.55;;;;;;;20.04;59.59;98802.00;4906899;29;20046;-96
2023/05/17 07:18:03;;;;;;;7.75;3.03;;;;;;;20.14;59.31;98814.38;4893716;29;20086;-93
2023/05/17 07:20:52;;;;;;;19.10;4.68;;;;;;;20.29;60.60;98818.31;4890492;29;20020;-95
2023/05/17 07:23:17;;;;;;;11.63;3.50;;;;;;;20.42;59.98;98811.69;4909698;29;20044;-96
2023/05/17 07:25:42;;;;;;;13.95;3.60;;;;;;;20.67;59.63;98828.81;4908484;29;20054;-91
2023/05/17 07:28:08;;;;;;;16.73;3.50;;;;;;;20.62;58.99;98803.66;4923958;29;20035;-91
2023/05/17 07:30:33;;;;;;;7.95;2.60;;;;;;;20.79;58.42;98819.72;4907551;29;20027;-94
2023/05/17 07:32:59;;;;;;;10.57;3.35;;;;;;;20.76;59.01;98798.56;4922363;29;20023;-92
2023/05/17 07:35:25;;;;;;;10.80;4.03;;;;;;;20.77;59.70;98811.91;4906354;29;20030;-92
2023/05/17 07:37:53;;;;;;;16.60;4.70;;;;;;;20.75;61.06;98830.59;4908814;29;20031;-92
2023/05/17 07:40:19;;;;;;;16.38;4.68;;;;;;;20.75;60.33;98811.44;4908383;29;20599;-94
2023/05/17 07:42:47;;;;;;;10.05;3.92;;;;;;;20.87;58.86;98799.63;4907188;29;20046;-92
2023/05/17 07:45:15;;;;;;;14.68;3.35;;;;;;;20.84;58.63;98803.06;4904881;29;20578;-91
2023/05/17 07:47:41;;;;;;;5.97;2.67;;;;;;;20.93;58.54;98814.63;4932597;29;20024;-91
2023/05/17 07:50:12;;;;;;;7.93;2.42;;;;;;;21.04;58.93;98811.38;4905347;29;20183;-91
2023/05/17 07:52:38;;;;;;;;;;;;;;;21.15;58.20;98834.38;4891108;29;20047;-90
2023/05/17 07:55:04;;;;;;;10.13;3.33;;;;;;;21.19;58.35;98836.03;4916804;29;20436;-89
2023/05/17 07:57:30;;;;;;;11.02;3.78;;;;;;;21.26;57.67;98826.41;4921727;29;20038;-89
2023/05/17 07:59:58;;;;;;;6.72;2.45;;;;;;;21.11;56.44;98800.63;4905918;29;20031;-90
2023/05/17 08:02:26;;;;;;;7.72;2.50;;;;;;;20.89;57.75;98796.53;4907046;29;20470;-91
2023/05/17 08:04:57;;;;;;;9.18;2.70;;;;;;;21.16;57.83;98812.09;4905774;29;20031;-91
2023/05/17 08:07:25;;;;;;;7.55;2.50;;;;;;;21.50;56.15;98811.75;4921229;29;20510;-91
2023/05/17 08:09:52;;;;;;;12.38;2.63;;;;;;;21.68;56.09;98810.22;4905125;29;20027;-91
2023/05/17 08:12:18;;;;;;;13.40;4.10;;;;;;;21.82;55.67;98792.53;4922258;29;20031;-91
2023/05/17 08:14:43;;;;;;;11.27;3.13;;;;;;;21.84;55.79;98818.44;4889595;29;20054;-91
2023/05/17 08:17:09;;;;;;;11.15;2.97;;;;;;;21.97;55.56;98806.19;4921680;29;20126;-90
2023/05/17 08:19:34;;;;;;;8.23;2.25;;;;;;;22.16;53.67;98810.91;4939372;29;20450;-90
2023/05/17 08:22:00;;;;;;;18.35;2.83;;;;;;;22.10;52.75;98795.09;4920630;29;20171;-92
2023/05/17 08:24:25;;;;;;;10.98;2.80;;;;;;;22.11;53.75;98818.63;4887276;29;20039;-92
2023/05/17 08:26:52;;;;;;;12.70;4.10;;;;;;;22.00;53.97;98794.50;4913820;29;20023;-92
2023/05/17 08:29:19;;;;;;;11.13;3.70;;;;;;;22.10;53.75;98800.56;4906140;29;20475;-91
2023/05/17 08:31:45;;;;;;;8.93;2.45;;;;;;;22.10;54.69;98815.09;4938165;29;20125;-88
2023/05/17 08:34:11;;;;;;;13.75;3.00;;;;;;;22.29;54.90;98822.56;4920739;29;20396;-90
2023/05/17 08:36:36;;;;;;;7.88;2.38;;;;;;;22.33;53.83;98820.69;4937963;29;20537;-89
2023/05/17 08:39:02;;;;;;;10.48;2.90;;;;;;;22.20;54.74;98798.06;4905259;29;20086;-90
2023/05/17 08:42:23;;;;;;;;;;;;;;;;;;;;;
2023/05/17 08:44:49;;;;;;;17.23;2.70;;;;;;;22.37;53.91;98810.59;4938745;29;20038;-91
2023/05/17 08:47:24;;;;;;;14.05;6.28;;;;;;;22.68;54.04;98819.81;4905073;29;20059;-91
2023/05/17 08:49:50;;;;;;;7.97;2.83;;;;;;;22.78;53.02;98808.22;4888355;29;20581;-89
2023/05/17 08:52:18;;;;;;;7.50;2.53;;;;;;;22.73;53.84;98821.47;4926835;29;20040;-90
2023/05/17 08:54:47;;;;;;;7.53;3.17;;;;;;;22.71;53.29;98813.59;4933531;29;20024;-89
2023/05/17 08:57:13;;;;;;;9.43;2.95;;;;;;;22.84;53.51;98814.22;4930427;29;20090;-90
2023/05/17 08:59:38;;;;;;;144.45;82.38;;;;;;;22.82;54.17;98797.31;4900479;29;20087;-91
2023/05/17 09:02:04;;;;;;;11.95;4.70;;;;;;;22.95;52.80;98798.72;4886758;29;20023;-89
2023/05/17 09:04:30;;;;;;;9.68;3.45;;;;;;;23.16;52.92;98814.81;4901550;29;20028;-90
2023/05/17 09:06:55;;;;;;;7.85;2.95;;;;;;;22.68;52.22;98795.13;4885809;29;20024;-92
2023/05/17 09:09:22;;;;;;;10.15;2.95;;;;;;;22.89;52.37;98811.19;4902085;29;20698;-89
2023/05/17 09:11:48;;;;;;;10.82;3.17;;;;;;;22.82;52.64;98808.28;4886051;29;20028;-92
2023/05/17 09:14:25;;;;;;;9.25;4.00;;;;;;;22.91;52.83;98792.38;4869930;29;20054;-89
2023/05/17 09:17:03;;;;;;;9.55;4.68;;;;;;;22.88;52.49;98798.59;4887068;29;20443;-90
2023/05/17 09:19:57;;;;;;;;;;;;;;;;;;;;;
2023/05/17 09:22:18;;;;;;;6.10;2.58;;;;;;;22.97;52.33;98810.16;4904742;29;20036;-90
2023/05/17 09:24:46;;;;;;;8.65;3.20;;;;;;;23.11;52.73;98828.84;4900809;29;20049;-90
2023/05/17 09:27:16;;;;;;;10.77;2.97;;;;;;;22.77;52.09;98814.09;4890354;29;20030;-90
2023/05/17 09:29:49;;;;;;;10.50;2.58;;;;;;;22.67;52.31;98809.97;4908798;29;20027;-91
2023/05/17 09:32:24;;;;;;;6.55;2.40;;;;;;;22.74;52.38;98815.63;4925103;29;20035;-91
2023/05/17 09:34:50;;;;;;;13.43;3.50;;;;;;;22.64;52.32;98805.22;4924751;29;20047;-90
2023/05/17 09:37:19;;;;;;;9.00;3.28;;;;;;;22.49;53.33;98806.88;4921745;29;20042;-89
2023/05/17 09:39:46;;;;;;;10.23;3.03;;;;;;;22.76;53.38;98813.28;4938610;29;20031;-89
2023/05/17 09:42:15;;;;;;;10.07;3.60;;;;;;;22.60;53.56;98794.19;4906169;29;20114;-92
2023/05/17 09:44:56;;;;;;;10.82;3.30;;;;;;;22.66;54.57;98818.56;4923032;29;20446;-90
2023/05/17 09:47:23;;;;;;;105.95;75.93;;;;;;;22.51;54.54;98784.56;4912833;29;20060;-91
2023/05/17 09:49:49;;;;;;;11.93;4.65;;;;;;;22.66;54.50;98789.19;4918196;29;20417;-89
2023/05/17 09:52:19;;;;;;;13.95;3.03;;;;;;;22.47;54.37;98767.25;4896089;29;20048;-89
2023/05/17 09:54:54;;;;;;;89.00;56.53;;;;;;;22.38;54.61;98771.00;4892605;29;20051;-91
2023/05/17 09:57:20;;;;;;;10.95;5.55;;;;;;;22.31;55.17;98781.84;4903242;29;20388;-93
2023/05/17 09:59:53;;;;;;;11.02;3.53;;;;;;;22.30;55.10;98776.72;4919303;29;20043;-92
2023/05/17 10:02:23;;;;;;;12.35;3.60;;;;;;;22.32;55.07;98791.66;4889590;29;20036;-91
2023/05/17 10:04:52;;;;;;;6.30;2.55;;;;;;;22.01;55.08;98776.09;4903488;29;20031;-89
2023/05/17 10:07:21;;;;;;;12.50;3.30;;;;;;;22.14;55.06;98794.03;4904245;29;20041;-92
2023/05/17 10:09:48;;;;;;;6.07;2.83;;;;;;;22.29;54.83;98816.28;4903172;29;20371;-91
2023/05/17 10:12:16;;;;;;;7.00;3.20;;;;;;;22.00;56.91;98799.22;4919288;29;20406;-91
2023/05/17 10:14:41;;;;;;;7.95;3.10;;;;;;;21.62;57.53;98811.66;4919433;29;20031;-92
2023/05/17 10:17:07;;;;;;;9.65;3.72;;;;;;;21.44;58.55;98794.81;4918978;29;20079;-93
2023/05/17 10:19:33;;;;;;;10.07;3.20;;;;;;;21.44;58.51;98797.56;4919719;29;20027;-91
2023/05/17 10:22:01;;;;;;;7.63;3.50;;;;;;;21.45;59.00;98806.56;4942823;29;20500;-89
2023/05/17 10:24:29;;;;;;;8.57;3.33;;;;;;;21.02;58.21;98786.31;4907777;29;20054;-89
2023/05/17 10:27:07;;;;;;;11.98;3.20;;;;;;;20.82;59.39;98826.47;4924911;29;20043;-90
2023/05/17 10:29:36;;;;;;;21.23;3.70;;;;;;;20.79;59.05;98815.09;4917217;29;20402;-91
2023/05/17 10:32:09;;;;;;;9.73;3.58;;;;;;;20.92;58.83;98807.59;4910004;29;20040;-92
2023/05/17 10:34:38;;;;;;;7.20;3.97;;;;;;;20.94;58.97;98809.97;4921225;29;20032;-91
2023/05/17 10:37:06;;;;;;;6.78;3.10;;;;;;;21.10;59.07;98791.59;4910323;29;20027;-90
2023/05/17 10:39:58;;;;;;;8.48;2.90;;;;;;;21.24;58.71;98790.38;4921635;29;20024;-91
2023/05/17 10:42:23;;;;;;;5.78;3.15;;;;;;;21.29;58.20;98793.66;4934745;29;20032;-90
2023/05/17 10:44:49;;;;;;;16.30;3.65;;;;;;;21.54;57.53;98787.97;4921693;29;20023;-90
2023/05/17 10:47:15;;;;;;;6.78;3.40;;;;;;;21.89;56.25;98795.41;4900142;29;20027;-94
2023/05/17 10:49:46;;;;;;;6.22;2.85;;;;;;;22.00;55.30;98793.72;4900159;29;20027;-90
2023/05/17 10:52:20;;;;;;;8.07;3.17;;;;;;;21.98;56.05;98793.28;4908219;29;20050;-91
2023/05/17 10:55:09;;;;;;;9.02;3.30;;;;;;;21.88;56.14;98789.16;4888424;29;20039;-90
2023/05/17 10:57:35;;;;;;;8.93;3.38;;;;;;;21.89;56.85;98796.22;4896772;29;20064;-92
2023/05/17 11:00:06;;;;;;;7.43;2.80;;;;;;;21.72;57.29;98793.88;4907902;29;20545;-89
2023/05/17 11:02:38;;;;;;;6.22;3.10;;;;;;;21.61;57.63;98776.41;4910273;29;20027;-90
2023/05/17 11:05:07;;;;;;;10.65;3.35;;;;;;;21.34;58.73;98785.16;4905707;29;20066;-89
2023/05/17 11:07:36;;;;;;;6.93;2.85;;;;;;;21.19;58.51;98781.28;4916476;29;20509;-88
2023/05/17 11:10:15;;;;;;;8.80;3.40;;;;;;;21.24;59.25;98784.91;4934586;29;20031;-89
2023/05/17 11:12:54;;;;;;;9.38;3.80;;;;;;;21.34;58.63;98781.63;4896145;29;20514;-91
2023/05/17 11:15:23;;;;;;;6.10;3.33;;;;;;;21.55;57.45;98778.63;4909319;29;20398;-92
2023/05/17 11:17:56;;;;;;;10.05;2.80;;;;;;;21.67;57.22;98773.03;4891279;29;20402;-92
2023/05/17 11:20:29;;;;;;;8.98;2.90;;;;;;;21.74;57.11;98800.59;4891830;29;20407;-90
2023/05/17 11:22:58;;;;;;;8.02;3.10;;;;;;;21.69;57.57;98803.63;4920912;29;20023;-90
2023/05/17 11:29:04;;;;;;;18.05;10.77;;;;;;;21.98;56.24;98774.09;4918360;29;20116;-94
2023/05/17 11:31:36;;;;;;;7.18;3.40;;;;;;;21.78;57.02;98787.75;4917778;29;20059;-95
2023/05/17 11:34:02;;;;;;;7.97;3.15;;;;;;;21.84;57.39;98801.19;4910322;29;20035;-91
2023/05/17 11:36:28;;;;;;;8.20;3.30;;;;;;;21.66;56.80;98771.44;4927157;29;20034;-94
2023/05/17 11:39:13;;;;;;;10.02;2.97;;;;;;;21.35;58.30;98762.13;4913279;29;20126;-93
2023/05/17 11:41:50;;;;;;;7.80;2.53;;;;;;;21.16;58.22;98770.25;4928578;29;20102;-93
2023/05/17 11:44:20;;;;;;;5.82;2.90;;;;;;;21.11;58.51;98754.09;4941388;29;20476;-89
2023/05/17 11:46:46;;;;;;;10.02;2.92;;;;;;;20.91;58.13;98751.25;4940948;29;20027;-89
2023/05/17 11:49:11;;;;;;;6.10;3.38;;;;;;;20.88;57.99;98759.38;4940047;29;20031;-90
2023/05/17 11:51:36;;;;;;;7.93;2.88;;;;;;;20.92;58.71;98779.44;4905175;29;20067;-90
2023/05/17 11:54:03;;;;;;;10.02;2.78;;;;;;;20.89;58.89;98777.38;4886809;29;20666;-92
2023/05/17 11:56:33;;;;;;;8.05;3.30;;;;;;;20.70;59.56;98765.19;4903691;29;20020;-89
2023/05/17 11:59:01;;;;;;;8.73;3.23;;;;;;;20.49;60.44;98773.59;4906906;29;20043;-90
2023/05/17 12:01:27;;;;;;;6.25;2.85;;;;;;;20.19;61.49;98790.34;4921072;29;20039;-91